Time;durP1;ratioP1;P1;durP2;ratioP2;P2;SDS_P1;SDS_P2;PMS_P1;PMS_P2;Temp;Humidity;BMP_temperature;BMP_pressure;BME280_temperature;BME280_humidity;BME280_pressure;Samples;Min_cycle;Max_cycle;Signal;HPM_P1;HPM_P2
2021/04/29 00:02:17;;;;;;;1999.90;999.90;;;10.20;95.30;;;;;;5036193;28;20135;-91
2021/04/29 00:04:45;;;;;;;1999.90;999.90;;;10.20;95.70;;;;;;5036720;28;20045;-91
2021/04/29 00:07:12;;;;;;;1999.90;999.90;;;10.20;95.80;;;;;;5035821;28;20049;-91
2021/04/29 00:09:40;;;;;;;1999.90;999.90;;;10.10;96.30;;;;;;5024016;28;20076;-91
2021/04/29 00:12:08;;;;;;;1999.90;999.90;;;10.10;96.60;;;;;;5036490;28;20107;-90
2021/04/29 00:14:35;;;;;;;1999.90;999.90;;;10.10;96.20;;;;;;5036419;28;20132;-90
2021/04/29 00:17:02;;;;;;;1999.90;999.90;;;10.10;96.80;;;;;;5036849;28;20054;-91
2021/04/29 00:19:30;;;;;;;1999.90;999.90;;;10.10;96.30;;;;;;5033943;28;20128;-90
2021/04/29 00:21:58;;;;;;;1999.90;999.90;;;10.10;96.60;;;;;;5036049;28;20131;-91
2021/04/29 00:24:26;;;;;;;1999.90;999.90;;;10.10;96.70;;;;;;5028928;28;20061;-91
2021/04/29 00:26:53;;;;;;;1999.90;999.90;;;10.10;97.00;;;;;;5041257;28;20049;-91
2021/04/29 00:29:20;;;;;;;1999.90;999.90;;;10.10;96.80;;;;;;5030966;28;20072;-90
2021/04/29 00:31:47;;;;;;;1999.90;999.90;;;10.10;97.30;;;;;;5035795;28;20151;-90
2021/04/29 00:34:14;;;;;;;1999.90;999.90;;;10.10;97.50;;;;;;5029578;28;20050;-90
2021/04/29 00:36:41;;;;;;;1999.90;999.90;;;10.10;97.80;;;;;;5035628;28;20053;-91
2021/04/29 00:39:09;;;;;;;1999.90;999.90;;;10.10;98.20;;;;;;5035836;28;20068;-91
2021/04/29 00:41:36;;;;;;;1999.90;999.90;;;10.10;98.20;;;;;;5035615;28;20128;-90
2021/04/29 00:44:03;;;;;;;1999.90;999.90;;;10.00;98.70;;;;;;5033391;28;20145;-91
2021/04/29 00:46:30;;;;;;;1999.90;999.90;;;10.10;98.60;;;;;;5046469;28;20061;-91
2021/04/29 00:48:57;;;;;;;1999.90;999.90;;;10.10;98.90;;;;;;5035948;28;20084;-90
2021/04/29 00:51:24;;;;;;;1999.90;999.90;;;10.10;99.10;;;;;;5031797;28;20144;-90
2021/04/29 00:53:52;;;;;;;1999.90;999.90;;;10.10;99.30;;;;;;5034471;28;20136;-91
2021/04/29 00:56:22;;;;;;;1999.90;999.90;;;10.10;99.50;;;;;;5034312;28;20053;-90
2021/04/29 00:58:51;;;;;;;1999.90;999.90;;;10.10;99.80;;;;;;5030027;28;20053;-90
2021/04/29 01:01:20;;;;;;;1999.90;999.90;;;10.10;99.90;;;;;;5035349;28;20045;-90
2021/04/29 01:03:53;;;;;;;1999.90;999.90;;;10.00;99.70;;;;;;5029664;28;20053;-90
2021/04/29 01:06:27;;;;;;;1999.90;999.90;;;10.10;99.50;;;;;;5034030;28;20069;-90
2021/04/29 01:08:57;;;;;;;1999.90;999.90;;;10.10;99.90;;;;;;5034150;28;20045;-90
2021/04/29 01:11:28;;;;;;;1999.90;999.90;;;10.10;99.90;;;;;;5033082;28;20289;-90
2021/04/29 01:13:57;;;;;;;1999.90;999.90;;;10.20;99.90;;;;;;5034526;28;20436;-90
2021/04/29 01:16:26;;;;;;;1999.90;999.90;;;10.20;99.90;;;;;;5030099;28;20440;-90
2021/04/29 01:18:55;;;;;;;1999.90;999.90;;;10.20;99.90;;;;;;5034937;28;20041;-90
2021/04/29 01:21:24;;;;;;;1999.90;999.90;;;10.20;99.90;;;;;;5030090;28;20076;-90
2021/04/29 01:23:58;;;;;;;1999.90;999.90;;;10.20;99.90;;;;;;5027350;28;20073;-91
2021/04/29 01:26:49;;;;;;;1999.90;999.90;;;10.20;99.90;;;;;;5043357;28;20060;-90
2021/04/29 01:29:20;;;;;;;1999.90;999.90;;;10.20;99.90;;;;;;5029556;28;20049;-90
2021/04/29 01:31:48;;;;;;;1999.90;999.90;;;10.20;99.90;;;;;;5029282;28;20159;-91
2021/04/29 01:34:18;;;;;;;1999.90;999.90;;;10.20;99.90;;;;;;5034347;28;20175;-91
2021/04/29 01:36:47;;;;;;;1999.90;999.90;;;10.20;99.90;;;;;;5035745;28;20099;-91
2021/04/29 01:39:17;;;;;;;1999.90;999.90;;;10.20;99.90;;;;;;5030147;28;20068;-91
2021/04/29 01:41:46;;;;;;;1999.90;999.90;;;10.20;99.90;;;;;;5037545;28;20084;-94
2021/04/29 01:44:15;;;;;;;1999.90;999.90;;;10.20;99.90;;;;;;5039246;28;20053;-95
2021/04/29 01:46:44;;;;;;;1999.90;999.90;;;10.20;99.90;;;;;;5046017;28;20054;-94
2021/04/29 01:49:12;;;;;;;1999.90;999.90;;;10.20;99.90;;;;;;5055801;28;20107;-95
2021/04/29 01:51:40;;;;;;;1999.90;999.90;;;10.20;99.90;;;;;;5055969;28;20038;-95
2021/04/29 01:54:09;;;;;;;1999.90;999.90;;;10.20;99.90;;;;;;5056553;28;20044;-94
2021/04/29 01:56:37;;;;;;;1999.90;999.90;;;10.30;99.90;;;;;;5053744;28;20049;-94
2021/04/29 01:59:05;;;;;;;1999.90;999.90;;;10.30;99.90;;;;;;5042997;28;20488;-94
2021/04/29 02:01:34;;;;;;;1999.90;999.90;;;10.30;99.90;;;;;;5050140;28;20053;-94
2021/04/29 02:04:02;;;;;;;1999.90;999.90;;;10.30;99.90;;;;;;5025131;28;20053;-90
2021/04/29 02:06:30;;;;;;;1999.90;999.90;;;10.40;99.90;;;;;;5029726;28;20049;-91
2021/04/29 02:08:58;;;;;;;1999.90;999.90;;;10.40;99.90;;;;;;5034061;28;20045;-91
2021/04/29 02:11:26;;;;;;;1999.90;999.90;;;10.40;99.90;;;;;;5034095;28;20053;-90
2021/04/29 02:13:56;;;;;;;1999.90;999.90;;;10.40;99.90;;;;;;5034360;28;20050;-91
2021/04/29 02:16:30;;;;;;;1999.90;999.90;;;10.30;99.90;;;;;;5034334;28;20057;-91
2021/04/29 02:19:02;;;;;;;1999.90;999.90;;;10.30;99.90;;;;;;5033865;28;20742;-91
2021/04/29 02:21:30;;;;;;;1999.90;999.90;;;10.30;99.90;;;;;;5027869;28;20473;-90
2021/04/29 02:23:58;;;;;;;1999.90;999.90;;;10.40;99.90;;;;;;5032981;28;20045;-94
2021/04/29 02:26:26;;;;;;;1999.90;999.90;;;10.40;99.90;;;;;;5035306;28;20377;-93
2021/04/29 02:28:54;;;;;;;1999.90;999.90;;;10.40;99.90;;;;;;5035586;28;20107;-94
2021/04/29 02:31:23;;;;;;;1999.90;999.90;;;10.50;99.90;;;;;;5034604;28;20499;-94
2021/04/29 02:33:50;;;;;;;1999.90;999.90;;;10.50;99.90;;;;;;5034657;28;20084;-94
2021/04/29 02:36:18;;;;;;;1999.90;999.90;;;10.40;99.90;;;;;;5034695;28;20049;-94
2021/04/29 02:38:46;;;;;;;1999.90;999.90;;;10.40;99.90;;;;;;5035496;28;20427;-93
2021/04/29 02:41:13;;;;;;;1999.90;999.90;;;10.40;99.90;;;;;;5035021;28;20049;-94
2021/04/29 02:43:40;;;;;;;1999.90;999.90;;;10.40;99.90;;;;;;5034787;28;20107;-94
2021/04/29 02:46:07;;;;;;;1999.90;999.90;;;10.40;99.90;;;;;;5034803;28;20059;-94
2021/04/29 02:48:34;;;;;;;1999.90;999.90;;;10.30;99.90;;;;;;5034806;28;20073;-93
2021/04/29 02:51:03;;;;;;;1999.90;999.90;;;10.30;99.90;;;;;;5034936;28;20190;-93
2021/04/29 02:53:35;;;;;;;1999.90;999.90;;;10.30;99.90;;;;;;5038871;28;20492;-93
2021/04/29 02:56:04;;;;;;;1999.90;999.90;;;10.30;99.90;;;;;;5038881;28;20080;-95
2021/04/29 02:58:31;;;;;;;1999.90;999.90;;;10.20;99.90;;;;;;5038378;28;20053;-93
2021/04/29 03:00:59;;;;;;;1999.90;999.90;;;10.20;99.90;;;;;;5038575;28;20445;-93
2021/04/29 03:03:27;;;;;;;1999.90;999.90;;;10.20;99.90;;;;;;5038255;28;20053;-93
2021/04/29 03:05:55;;;;;;;1999.90;999.90;;;10.20;99.90;;;;;;5038119;28;20053;-94
2021/04/29 03:08:23;;;;;;;1999.90;999.90;;;10.20;99.90;;;;;;5039100;28;20049;-94
2021/04/29 03:10:51;;;;;;;1999.90;999.90;;;10.30;99.90;;;;;;5038035;28;20088;-94
2021/04/29 03:13:18;;;;;;;1999.90;999.90;;;10.30;99.90;;;;;;5038346;28;20046;-94
2021/04/29 03:15:45;;;;;;;1999.90;999.90;;;10.30;99.90;;;;;;5038397;28;20201;-94
2021/04/29 03:18:13;;;;;;;1999.90;999.90;;;10.30;99.90;;;;;;5038752;28;20136;-94
2021/04/29 03:24:07;;;;;;;1999.90;999.90;;;10.20;99.90;;;;;;5032608;28;20050;-96
2021/04/29 03:26:38;;;;;;;1999.90;999.90;;;10.10;99.90;;;;;;5032061;28;20084;-95
2021/04/29 03:29:05;;;;;;;1999.90;999.90;;;10.00;99.90;;;;;;5038947;28;20133;-95
2021/04/29 03:39:21;;;;;;;1999.90;999.90;;;9.90;99.90;;;;;;5013270;28;20048;-96
2021/04/29 03:41:58;;;;;;;1999.90;999.90;;;9.90;99.90;;;;;;5038448;28;20057;-95
2021/04/29 03:44:34;;;;;;;1999.90;999.90;;;9.80;99.90;;;;;;5038043;28;20050;-95
2021/04/29 03:47:03;;;;;;;1999.90;999.90;;;9.80;99.90;;;;;;5038981;28;20461;-96
2021/04/29 03:49:31;;;;;;;1999.90;999.90;;;9.90;99.90;;;;;;5038255;28;20050;-95
2021/04/29 03:51:59;;;;;;;1999.90;999.90;;;9.90;99.90;;;;;;5038106;28;20053;-95
2021/04/29 03:54:28;;;;;;;1999.90;999.90;;;9.90;99.90;;;;;;5038969;28;20053;-94
2021/04/29 03:56:56;;;;;;;1999.90;999.90;;;9.80;99.90;;;;;;5047453;28;20088;-95
2021/04/29 03:59:24;;;;;;;1999.90;999.90;;;9.90;99.90;;;;;;5056164;28;20029;-95
2021/04/29 04:01:52;;;;;;;1999.90;999.90;;;9.80;99.90;;;;;;5042376;28;20111;-95
2021/04/29 04:04:19;;;;;;;1999.90;999.90;;;9.80;99.90;;;;;;5038564;28;20057;-96
2021/04/29 04:06:49;;;;;;;1999.90;999.90;;;9.70;99.90;;;;;;5038696;28;20053;-96
2021/04/29 04:09:17;;;;;;;1999.90;999.90;;;9.70;99.90;;;;;;5038823;28;20053;-96
2021/04/29 04:11:44;;;;;;;1999.90;999.90;;;9.70;99.90;;;;;;5038524;28;20045;-96
2021/04/29 04:14:13;;;;;;;1999.90;999.90;;;9.70;99.90;;;;;;5037658;28;20046;-96
2021/04/29 04:16:58;;;;;;;1999.90;999.90;;;9.60;99.90;;;;;;5040432;28;20107;-96
2021/04/29 04:19:27;;;;;;;1999.90;999.90;;;9.60;99.90;;;;;;5037476;28;20049;-96
2021/04/29 04:21:54;;;;;;;1999.90;999.90;;;9.60;99.90;;;;;;5037284;28;20496;-96
2021/04/29 04:24:22;;;;;;;1999.90;999.90;;;9.50;99.90;;;;;;5037993;28;20050;-96
2021/04/29 04:26:55;;;;;;;1999.90;999.90;;;9.50;99.90;;;;;;5039910;28;20472;-96
2021/04/29 04:29:26;;;;;;;1999.90;999.90;;;9.50;99.90;;;;;;5041740;28;20063;-96
2021/04/29 04:31:54;;;;;;;1999.90;999.90;;;9.60;99.90;;;;;;5041435;28;20095;-96
2021/04/29 04:34:28;;;;;;;1999.90;999.90;;;9.70;99.90;;;;;;5040810;28;20149;-96
2021/04/29 04:36:56;;;;;;;1999.90;999.90;;;9.50;99.90;;;;;;5040732;28;20135;-96
2021/04/29 04:39:29;;;;;;;1999.90;999.90;;;9.50;99.90;;;;;;5042988;28;20045;-96
2021/04/29 04:41:58;;;;;;;1999.90;999.90;;;9.50;99.90;;;;;;5044335;28;20054;-96
2021/04/29 04:44:27;;;;;;;1999.90;999.90;;;9.50;99.90;;;;;;5041184;28;20495;-96
2021/04/29 04:46:58;;;;;;;1999.90;999.90;;;9.50;99.90;;;;;;5039394;28;20408;-96
2021/04/29 04:49:36;;;;;;;1999.90;999.90;;;9.40;99.90;;;;;;5040004;28;20100;-96
2021/04/29 04:52:27;;;;;;;1999.90;999.90;;;9.40;99.90;;;;;;5040217;28;20049;-96
2021/04/29 07:16:31;;;;;;;1999.90;999.90;;;8.40;99.90;;;;;;838403;23;20338;-93
2021/04/29 07:18:59;;;;;;;1999.90;999.90;;;8.40;99.90;;;;;;4955975;29;20065;-95
2021/04/29 07:21:29;;;;;;;1999.90;999.90;;;8.30;99.90;;;;;;4957748;29;20051;-95
2021/04/29 07:24:21;;;;;;;1999.90;999.90;;;8.40;99.90;;;;;;4958085;29;20052;-95
2021/04/29 07:27:01;;;;;;;1999.90;999.90;;;8.40;99.90;;;;;;4959906;29;20055;-95
2021/04/29 07:29:39;;;;;;;1999.90;999.90;;;8.40;99.90;;;;;;4961493;29;20055;-94
2021/04/29 07:32:20;;;;;;;1999.90;999.90;;;8.40;99.90;;;;;;4959795;29;20066;-94
2021/04/29 07:35:16;;;;;;;1999.90;999.90;;;8.40;99.90;;;;;;4959974;29;20047;-95
2021/04/29 07:37:49;;;;;;;1999.90;999.90;;;8.40;99.90;;;;;;4959602;29;20051;-94
2021/04/29 07:40:34;;;;;;;1999.90;999.90;;;8.40;99.90;;;;;;4962795;29;20071;-95
2021/04/29 07:43:29;;;;;;;1999.90;999.90;;;8.40;99.90;;;;;;4964304;29;20059;-94
2021/04/29 07:46:23;;;;;;;1999.90;999.90;;;8.40;99.90;;;;;;4966909;29;20059;-95
2021/04/29 07:49:34;;;;;;;1999.90;999.90;;;8.40;99.90;;;;;;4967855;29;20059;-95
2021/04/29 08:10:21;;;;;;;1999.90;999.90;;;8.40;99.90;;;;;;4919404;29;20048;-94
2021/04/29 08:13:06;;;;;;;1999.90;999.90;;;8.40;99.90;;;;;;4925562;29;20056;-93
2021/04/29 08:15:50;;;;;;;1999.90;999.90;;;8.40;99.90;;;;;;4937559;29;20062;-93
2021/04/29 08:22:22;;;;;;;1999.90;999.90;;;8.40;99.90;;;;;;4866193;29;20058;-95
2021/04/29 08:25:52;;;;;;;1999.90;999.90;;;8.40;99.90;;;;;;4839759;29;20114;-93
2021/04/29 08:28:41;;;;;;;1999.90;999.90;;;8.50;99.90;;;;;;4864551;29;20057;-93
2021/04/29 08:31:43;;;;;;;;;;;;;;;;;;;;;
2021/04/29 08:34:35;;;;;;;1999.90;999.90;;;8.50;99.90;;;;;;4893657;29;20406;-95
2021/04/29 08:37:26;;;;;;;1999.90;999.90;;;8.40;99.90;;;;;;4901106;29;20060;-94
2021/04/29 08:46:45;;;;;;;1999.90;999.90;;;8.40;99.90;;;;;;4901349;29;20068;-96
2021/04/29 08:49:31;;;;;;;1999.90;999.90;;;8.40;99.90;;;;;;4900908;29;20395;-93
2021/04/29 08:52:22;;;;;;;1999.90;999.90;;;8.40;99.90;;;;;;4829751;29;20062;-95
2021/04/29 08:59:28;;;;;;;1999.90;999.90;;;8.30;99.90;;;;;;4764400;30;20100;-96
2021/04/29 10:17:12;;;;;;;1999.90;999.90;;;8.20;99.90;;;;;;626209;23;21737;-94
2021/04/29 10:20:23;;;;;;;1999.90;999.90;;;8.20;99.90;;;;;;4965328;28;20054;-96
2021/04/29 10:23:17;;;;;;;1999.90;999.90;;;8.20;99.90;;;;;;4965216;28;20143;-96
2021/04/29 10:26:11;;;;;;;1999.90;999.90;;;8.10;99.90;;;;;;4978570;28;20516;-96
2021/04/29 10:29:39;;;;;;;;;;;;;;;;;;;;;
2021/04/29 10:33:05;;;;;;;1999.90;999.90;;;8.10;99.90;;;;;;4987119;28;20125;-95
2021/04/29 10:36:32;;;;;;;;;;;8.00;99.90;;;;;;4985507;28;20534;-96
2021/04/29 10:39:52;;;;;;;1999.90;999.90;;;7.90;99.90;;;;;;4938000;29;19929;-96
2021/04/29 10:54:47;;;;;;;1999.90;999.90;;;7.80;99.90;;;;;;4769468;30;20114;-94
2021/04/29 12:33:23;;;;;;;1999.90;999.90;;;7.50;99.90;;;;;;1036497;23;20357;-91
2021/04/29 12:36:12;;;;;;;1999.90;999.90;;;7.40;99.90;;;;;;4987403;28;20455;-95
2021/04/29 12:38:55;;;;;;;1999.90;999.90;;;7.40;99.90;;;;;;4975142;28;20081;-94
2021/04/29 13:03:41;;;;;;;1999.90;999.90;;;7.30;99.90;;;;;;4986710;28;20046;-96
2021/04/29 13:06:16;;;;;;;1999.90;999.90;;;7.20;99.90;;;;;;4990006;28;20061;-95
2021/04/29 13:16:51;;;;;;;1999.90;999.90;;;7.10;99.90;;;;;;4976997;28;20125;-95
2021/04/29 13:19:25;;;;;;;1999.90;999.90;;;7.10;99.90;;;;;;4978559;28;20059;-94
2021/04/29 13:21:59;;;;;;;1999.90;999.90;;;7.10;99.90;;;;;;4978210;28;20402;-95
2021/04/29 13:24:44;;;;;;;1999.90;999.90;;;7.10;99.90;;;;;;4977805;28;20058;-94
2021/04/29 13:27:28;;;;;;;1999.90;999.90;;;7.10;99.90;;;;;;4977160;28;20150;-94
2021/04/29 13:29:58;;;;;;;1999.90;999.90;;;7.10;99.90;;;;;;4978109;28;20058;-95
2021/04/29 13:33:12;;;;;;;1999.90;999.90;;;7.10;99.90;;;;;;4979542;28;20557;-96
2021/04/29 15:11:55;;;;;;;1999.90;999.90;;;6.80;99.90;;;;;;4955947;28;20055;-95
2021/04/29 15:17:51;;;;;;;1999.90;999.90;;;6.70;99.90;;;;;;4925790;28;20055;-96
2021/04/29 15:39:28;;;;;;;1999.90;999.90;;;6.70;99.90;;;;;;4920437;29;20092;-94
2021/04/29 15:42:32;;;;;;;1999.90;999.90;;;6.70;99.90;;;;;;4920594;29;20051;-94
2021/04/29 15:50:58;;;;;;;1999.90;999.90;;;6.80;99.90;;;;;;4826637;29;20129;-96
2021/04/29 15:54:14;;;;;;;1999.90;999.90;;;6.80;99.90;;;;;;4851584;29;20469;-95
2021/04/29 15:56:51;;;;;;;1999.90;999.90;;;6.80;99.90;;;;;;4848791;29;20110;-95
2021/04/29 15:59:34;;;;;;;1999.90;999.90;;;6.80;99.90;;;;;;4868234;29;20077;-94
2021/04/29 17:00:06;;;;;;;1999.90;999.90;;;7.10;99.90;;;;;;4832779;29;20065;-94
2021/04/29 17:05:45;;;;;;;;;;;;;;;;;;;;;
2021/04/29 17:08:43;;;;;;;1999.90;999.90;;;7.10;99.90;;;;;;4843420;29;20054;-93
2021/04/29 17:15:13;;;;;;;1999.90;999.90;;;7.10;99.90;;;;;;4912964;29;20068;-95
2021/04/29 17:18:11;;;;;;;1999.90;999.90;;;7.10;99.90;;;;;;4918079;29;20052;-93
2021/04/29 17:21:05;;;;;;;1999.90;999.90;;;7.10;99.90;;;;;;4917403;29;20048;-94
2021/04/29 17:24:10;;;;;;;1999.90;999.90;;;7.10;99.90;;;;;;4977511;28;20054;-93
2021/04/29 17:27:51;;;;;;;1999.90;999.90;;;7.20;99.90;;;;;;4975629;28;20509;-95
2021/04/29 17:30:48;;;;;;;;;;;;;;;;;;;;;
2021/04/29 17:33:39;;;;;;;1999.90;999.90;;;7.20;99.90;;;;;;4882657;29;20054;-94
2021/04/29 17:36:22;;;;;;;1999.90;999.90;;;7.20;99.90;;;;;;4881832;29;20057;-94
2021/04/29 17:43:44;;;;;;;;;;;;;;;;;;;;;
2021/04/29 17:47:24;;;;;;;1999.90;999.90;;;7.30;99.90;;;;;;4843620;29;20140;-94
2021/04/29 17:50:14;;;;;;;1999.90;999.90;;;7.30;99.90;;;;;;4925805;28;20047;-93
2021/04/29 17:52:42;;;;;;;1999.90;999.90;;;7.40;99.90;;;;;;4961373;28;20439;-93
2021/04/29 17:55:14;;;;;;;1999.90;999.90;;;7.40;99.90;;;;;;4957913;28;20401;-93
2021/04/29 17:58:22;;;;;;;1999.90;999.90;;;7.40;99.90;;;;;;4959035;29;20078;-95
2021/04/29 18:01:12;;;;;;;1999.90;999.90;;;7.40;99.90;;;;;;4946916;28;20526;-93
2021/04/29 18:04:04;;;;;;;;;;;7.50;99.90;;;;;;4960569;29;20065;-94
2021/04/29 18:06:54;;;;;;;1999.90;999.90;;;7.50;99.90;;;;;;4956933;29;19922;-95
2021/04/29 18:09:39;;;;;;;1999.90;999.90;;;7.50;99.90;;;;;;4958325;29;20066;-94
2021/04/29 18:12:18;;;;;;;1999.90;999.90;;;7.50;99.90;;;;;;4962084;29;20059;-95
2021/04/29 18:14:54;;;;;;;1999.90;999.90;;;7.50;99.90;;;;;;4958695;29;20055;-95
2021/04/29 18:17:22;;;;;;;1999.90;999.90;;;7.50;99.90;;;;;;4966730;29;20130;-95
2021/04/29 18:19:50;;;;;;;1999.90;999.90;;;7.60;99.90;;;;;;4957969;28;20110;-96
2021/04/29 18:22:19;;;;;;;1999.90;999.90;;;7.50;99.90;;;;;;4957965;28;20074;-96
2021/04/29 18:30:32;;;;;;;1999.90;999.90;;;7.60;99.90;;;;;;5008613;28;20075;-96
2021/04/29 18:33:03;;;;;;;1999.90;999.90;;;7.60;99.90;;;;;;5007588;28;20046;-96
2021/04/29 18:35:35;;;;;;;1999.90;999.90;;;7.60;99.90;;;;;;5008631;28;20058;-96
2021/04/29 18:38:04;;;;;;;1999.90;999.90;;;7.60;99.90;;;;;;5001105;28;20137;-96
2021/04/29 18:40:32;;;;;;;1999.90;999.90;;;7.60;99.90;;;;;;5000512;28;20050;-96
2021/04/29 18:43:02;;;;;;;1999.90;999.90;;;7.60;99.90;;;;;;5000806;28;20141;-96
2021/04/29 18:45:29;;;;;;;1999.90;999.90;;;7.60;99.90;;;;;;4999049;28;20065;-97
2021/04/29 18:47:59;;;;;;;1999.90;999.90;;;7.60;99.90;;;;;;5008637;28;20119;-96
2021/04/29 18:50:27;;;;;;;1999.90;999.90;;;7.60;99.90;;;;;;5009444;28;20046;-96
2021/04/29 18:52:55;;;;;;;1999.90;999.90;;;7.60;99.90;;;;;;5001336;28;20054;-96
2021/04/29 18:55:29;;;;;;;1999.90;999.90;;;7.60;99.90;;;;;;5004791;28;20051;-96
2021/04/29 18:58:00;;;;;;;1999.90;999.90;;;7.60;99.90;;;;;;5010440;28;20082;-96
2021/04/29 19:00:28;;;;;;;1999.90;999.90;;;7.60;99.90;;;;;;5005130;28;20046;-96
2021/04/29 19:03:31;;;;;;;1999.90;999.90;;;7.70;99.90;;;;;;4997082;28;20105;-96
2021/04/29 19:05:58;;;;;;;1999.90;999.90;;;7.70;99.90;;;;;;4995937;28;20401;-96
2021/04/29 19:08:26;;;;;;;1999.90;999.90;;;7.70;99.90;;;;;;4996255;28;20078;-95
2021/04/29 19:10:55;;;;;;;1999.90;999.90;;;7.70;99.90;;;;;;4996618;28;20108;-96
2021/04/29 19:13:22;;;;;;;1999.90;999.90;;;7.70;99.90;;;;;;4995372;28;20057;-95
2021/04/29 19:15:58;;;;;;;1999.90;999.90;;;7.70;99.90;;;;;;4997988;28;20058;-95
2021/04/29 19:18:26;;;;;;;1999.90;999.90;;;7.70;99.90;;;;;;4996388;28;20149;-95
2021/04/29 19:20:54;;;;;;;1999.90;999.90;;;7.80;99.90;;;;;;4995519;28;20046;-96
2021/04/29 19:23:22;;;;;;;1999.90;999.90;;;7.70;99.90;;;;;;4995996;28;20145;-94
2021/04/29 19:25:50;;;;;;;1999.90;999.90;;;7.70;99.90;;;;;;4996548;28;20507;-95
2021/04/29 19:28:19;;;;;;;1999.90;999.90;;;7.70;99.90;;;;;;4996760;28;20500;-95
2021/04/29 19:30:46;;;;;;;1999.90;999.90;;;7.70;99.90;;;;;;4999209;28;20054;-95
2021/04/29 19:33:14;;;;;;;1999.90;999.90;;;7.80;99.90;;;;;;4997618;28;20073;-96
2021/04/29 19:35:49;;;;;;;1999.90;999.90;;;7.80;99.90;;;;;;5003940;28;20054;-95
2021/04/29 19:38:19;;;;;;;1999.90;999.90;;;7.80;99.90;;;;;;5006925;28;20055;-96
2021/04/29 19:40:51;;;;;;;1999.90;999.90;;;7.80;99.90;;;;;;5006205;28;20531;-96
2021/04/29 19:43:21;;;;;;;1999.90;999.90;;;7.80;99.90;;;;;;5003445;28;20457;-96
2021/04/29 19:45:51;;;;;;;1999.90;999.90;;;7.80;99.90;;;;;;5005012;28;20065;-95
2021/04/29 19:48:21;;;;;;;1999.90;999.90;;;7.80;99.90;;;;;;5002314;28;20552;-96
2021/04/29 19:51:01;;;;;;;1999.90;999.90;;;7.80;99.90;;;;;;4999920;28;20081;-96
2021/04/29 19:53:29;;;;;;;1999.90;999.90;;;7.80;99.90;;;;;;5001260;28;20046;-96
2021/04/29 19:56:03;;;;;;;1999.90;999.90;;;7.80;99.90;;;;;;4999714;28;20054;-96
2021/04/29 19:58:31;;;;;;;1999.90;999.90;;;7.70;99.90;;;;;;4999647;28;20050;-96
2021/04/29 20:01:05;;;;;;;1999.90;999.90;;;7.70;99.90;;;;;;5000029;28;20092;-96
2021/04/29 20:03:35;;;;;;;1999.90;999.90;;;7.80;99.90;;;;;;4998666;28;20046;-96
2021/04/29 20:06:03;;;;;;;1999.90;999.90;;;7.70;99.90;;;;;;5000092;28;20046;-96
2021/04/29 20:08:33;;;;;;;1999.90;999.90;;;7.80;99.90;;;;;;5000816;28;20046;-96
2021/04/29 20:11:03;;;;;;;1999.90;999.90;;;7.70;99.90;;;;;;5001870;28;20054;-96
2021/04/29 20:13:36;;;;;;;1999.90;999.90;;;7.80;99.90;;;;;;5003448;28;20052;-96
2021/04/29 20:16:07;;;;;;;1999.90;999.90;;;7.80;99.90;;;;;;5004024;28;20061;-96
2021/04/29 20:18:38;;;;;;;1999.90;999.90;;;7.80;99.90;;;;;;5001935;28;20442;-96
2021/04/29 20:21:07;;;;;;;1999.90;999.90;;;7.80;99.90;;;;;;5003727;28;20060;-96
2021/04/29 20:23:35;;;;;;;1999.90;999.90;;;7.70;99.90;;;;;;5000884;28;20473;-96
2021/04/29 20:26:02;;;;;;;1999.90;999.90;;;7.80;99.90;;;;;;4999294;28;20467;-96
2021/04/29 20:28:40;;;;;;;1999.90;999.90;;;7.80;99.90;;;;;;5002154;28;20116;-96
2021/04/29 20:31:30;;;;;;;1999.90;999.90;;;7.70;99.90;;;;;;4990903;28;20516;-96
2021/04/29 20:33:59;;;;;;;1999.90;999.90;;;7.70;99.90;;;;;;4998780;28;20054;-96
2021/04/29 20:36:26;;;;;;;1999.90;999.90;;;7.80;99.90;;;;;;4998935;28;20058;-96
2021/04/29 20:38:55;;;;;;;1999.90;999.90;;;7.70;99.90;;;;;;4998219;28;20101;-96
2021/04/29 20:41:25;;;;;;;1999.90;999.90;;;7.80;99.90;;;;;;4999632;28;20046;-96
2021/04/29 20:43:54;;;;;;;1999.90;999.90;;;7.80;99.90;;;;;;4999130;28;20085;-96
2021/04/29 20:46:22;;;;;;;1999.90;999.90;;;7.80;99.90;;;;;;4998921;28;20056;-96
2021/04/29 21:13:36;;;;;;;1999.90;999.90;;;7.80;99.90;;;;;;4997221;28;20078;-96
2021/04/29 21:16:09;;;;;;;1999.90;999.90;;;7.90;99.90;;;;;;4966965;28;20057;-96
2021/04/29 21:18:40;;;;;;;1999.90;999.90;;;7.80;99.90;;;;;;4995709;28;20054;-93
2021/04/29 21:21:12;;;;;;;1999.90;999.90;;;7.90;99.90;;;;;;4977403;28;20046;-94
2021/04/29 21:23:53;;;;;;;1999.90;999.90;;;7.90;99.90;;;;;;4977181;28;20113;-94
2021/04/29 21:40:42;;;;;;;1999.90;999.90;;;7.80;99.90;;;;;;4785495;30;20059;-96
2021/04/29 21:43:09;;;;;;;1999.90;999.90;;;7.80;99.90;;;;;;4843681;29;20065;-96
2021/04/29 21:45:39;;;;;;;1999.90;999.90;;;7.80;99.90;;;;;;4927678;28;20050;-95
2021/04/29 21:48:08;;;;;;;1999.90;999.90;;;7.80;99.90;;;;;;4977338;28;20050;-95
2021/04/29 21:58:12;;;;;;;1999.90;999.90;;;7.80;99.90;;;;;;4889597;29;20059;-95
2021/04/29 22:00:45;;;;;;;1999.90;999.90;;;7.90;99.90;;;;;;4918083;29;20056;-96
2021/04/29 22:03:15;;;;;;;1999.90;999.90;;;7.90;99.90;;;;;;4971859;28;20394;-96
2021/04/29 22:05:47;;;;;;;1999.90;999.90;;;7.90;99.90;;;;;;4976966;28;20061;-96
2021/04/29 22:08:16;;;;;;;1999.90;999.90;;;7.90;99.90;;;;;;4976819;28;20055;-95
2021/04/29 22:10:48;;;;;;;1999.90;999.90;;;7.90;99.90;;;;;;4976315;28;20057;-96
2021/04/29 22:13:17;;;;;;;1999.90;999.90;;;7.90;99.90;;;;;;4977633;28;20385;-95
2021/04/29 22:15:47;;;;;;;1999.90;999.90;;;7.90;99.90;;;;;;4977802;28;20051;-96
2021/04/29 22:18:16;;;;;;;1999.90;999.90;;;7.90;99.90;;;;;;4977355;28;20062;-96
2021/04/29 22:20:45;;;;;;;1999.90;999.90;;;8.00;99.90;;;;;;4977468;28;20054;-96
2021/04/29 22:23:13;;;;;;;1999.90;999.90;;;8.00;99.90;;;;;;4976718;28;20058;-96
2021/04/29 22:25:43;;;;;;;1999.90;999.90;;;7.90;99.90;;;;;;4977218;28;20113;-96
2021/04/29 22:28:11;;;;;;;1999.90;999.90;;;7.90;99.90;;;;;;4984158;28;20398;-93
2021/04/29 22:30:39;;;;;;;1999.90;999.90;;;7.90;99.90;;;;;;4995330;28;20409;-94
2021/04/29 22:33:09;;;;;;;1999.90;999.90;;;7.90;99.90;;;;;;4995192;28;20453;-94
2021/04/29 22:35:38;;;;;;;1999.90;999.90;;;7.90;99.90;;;;;;4989487;28;20500;-94
2021/04/29 22:38:06;;;;;;;1999.90;999.90;;;7.90;99.90;;;;;;4983287;28;20410;-93
2021/04/29 22:40:35;;;;;;;1999.90;999.90;;;7.90;99.90;;;;;;4993284;28;20054;-94
2021/04/29 22:43:04;;;;;;;1999.90;999.90;;;8.00;99.90;;;;;;4995268;28;20050;-94
2021/04/29 22:45:32;;;;;;;1999.90;999.90;;;8.00;99.90;;;;;;4993515;28;20061;-94
2021/04/29 22:48:00;;;;;;;1999.90;999.90;;;8.00;99.90;;;;;;4981383;28;20062;-94
2021/04/29 22:50:28;;;;;;;1999.90;999.90;;;8.00;99.90;;;;;;4995678;28;20066;-94
2021/04/29 22:52:57;;;;;;;1999.90;999.90;;;8.00;99.90;;;;;;4994504;28;20052;-94
2021/04/29 22:55:25;;;;;;;1999.90;999.90;;;7.90;99.90;;;;;;4984733;28;20062;-94
2021/04/29 22:57:54;;;;;;;1999.90;999.90;;;7.90;99.90;;;;;;4991959;28;20058;-94
2021/04/29 23:00:22;;;;;;;1999.90;999.90;;;7.90;99.90;;;;;;4986048;28;20121;-93
2021/04/29 23:02:50;;;;;;;1999.90;999.90;;;7.90;99.90;;;;;;4977343;28;20047;-93
2021/04/29 23:05:18;;;;;;;1999.90;999.90;;;7.90;99.90;;;;;;4995405;28;20074;-94
2021/04/29 23:07:46;;;;;;;1999.90;999.90;;;7.90;99.90;;;;;;4995201;28;20119;-92
2021/04/29 23:10:14;;;;;;;1999.90;999.90;;;7.90;99.90;;;;;;4988484;28;20051;-93
2021/04/29 23:12:43;;;;;;;1999.90;999.90;;;7.90;99.90;;;;;;4992012;28;20520;-94
2021/04/29 23:15:12;;;;;;;1999.90;999.90;;;7.90;99.90;;;;;;4999042;28;20060;-94
2021/04/29 23:17:39;;;;;;;1999.90;999.90;;;7.90;99.90;;;;;;4999036;28;20058;-94
2021/04/29 23:20:08;;;;;;;1999.90;999.90;;;7.90;99.90;;;;;;5000275;28;20083;-93
2021/04/29 23:22:36;;;;;;;1999.90;999.90;;;7.90;99.90;;;;;;4987349;28;20058;-93
2021/04/29 23:25:04;;;;;;;1999.90;999.90;;;7.90;99.90;;;;;;5001145;28;20050;-93
2021/04/29 23:27:32;;;;;;;1999.90;999.90;;;7.90;99.90;;;;;;5000786;28;20050;-93
2021/04/29 23:30:00;;;;;;;1999.90;999.90;;;7.90;99.90;;;;;;4999453;28;20062;-93
2021/04/29 23:32:27;;;;;;;1999.90;999.90;;;7.90;99.90;;;;;;5005032;28;20046;-93
2021/04/29 23:34:54;;;;;;;1999.90;999.90;;;7.90;99.90;;;;;;5015272;28;20039;-94
2021/04/29 23:37:21;;;;;;;1999.90;999.90;;;7.90;99.90;;;;;;5011208;28;20057;-93